Time;durP1;ratioP1;P1;durP2;ratioP2;P2;SDS_P1;SDS_P2;PMS_P1;PMS_P2;Temp;Humidity;BMP_temperature;BMP_pressure;BME280_temperature;BME280_humidity;BME280_pressure;Samples;Min_cycle;Max_cycle;Signal;HPM_P1;HPM_P2
2022/02/23 00:02:14;;;;;;;17.05;2.17;;;;;;;4.51;100.00;102066.34;5075293;28;20044;-43
2022/02/23 00:04:43;;;;;;;18.45;3.17;;;;;;;4.48;100.00;102067.25;5075255;28;20059;-43
2022/02/23 00:07:12;;;;;;;12.27;1.98;;;;;;;4.50;100.00;102075.03;5075082;28;20041;-44
2022/02/23 00:09:40;;;;;;;12.07;2.13;;;;;;;4.45;100.00;102076.91;5074111;28;20067;-43
2022/02/23 00:12:09;;;;;;;16.05;2.55;;;;;;;4.49;100.00;102083.78;5074605;28;20372;-47
2022/02/23 00:14:37;;;;;;;16.45;2.53;;;;;;;4.47;100.00;102086.41;5074569;28;20120;-45
2022/02/23 00:17:05;;;;;;;14.00;2.30;;;;;;;4.47;100.00;102088.16;5074812;28;20510;-47
2022/02/23 00:19:33;;;;;;;15.85;4.47;;;;;;;4.42;100.00;102083.03;5074703;28;20476;-48
2022/02/23 00:22:02;;;;;;;18.67;2.42;;;;;;;4.38;100.00;102089.19;5074122;28;20557;-46
2022/02/23 00:24:31;;;;;;;11.88;2.28;;;;;;;4.35;100.00;102092.72;5074925;28;20097;-48
2022/02/23 00:26:59;;;;;;;15.13;2.38;;;;;;;4.35;100.00;102097.03;5074774;28;20083;-55
2022/02/23 00:29:27;;;;;;;15.88;2.55;;;;;;;4.30;100.00;102098.91;5073352;28;20094;-54
2022/02/23 00:31:56;;;;;;;11.05;1.95;;;;;;;4.23;100.00;102098.16;5074299;28;20040;-52
2022/02/23 00:34:24;;;;;;;19.23;2.38;;;;;;;4.21;100.00;102100.78;5074612;28;20541;-46
2022/02/23 00:36:54;;;;;;;16.35;2.45;;;;;;;4.22;100.00;102104.25;5073329;28;20051;-45
2022/02/23 00:39:22;;;;;;;18.20;2.70;;;;;;;4.15;100.00;102100.03;5074580;28;20518;-45
2022/02/23 00:41:52;;;;;;;18.10;2.53;;;;;;;4.10;100.00;102107.91;5074691;28;20110;-45
2022/02/23 00:44:20;;;;;;;15.88;2.63;;;;;;;4.05;100.00;102114.97;5074527;28;20491;-53
2022/02/23 00:46:50;;;;;;;19.55;2.50;;;;;;;3.97;100.00;102104.69;5074225;28;20126;-54
2022/02/23 00:49:18;;;;;;;15.82;2.20;;;;;;;3.96;100.00;102102.97;5074407;28;20060;-54
2022/02/23 00:51:46;;;;;;;15.25;2.40;;;;;;;3.92;100.00;102111.72;5074157;28;20041;-55
2022/02/23 00:54:16;;;;;;;14.02;1.85;;;;;;;3.85;100.00;102112.72;5074423;28;20502;-55
2022/02/23 00:56:44;;;;;;;14.10;2.47;;;;;;;3.84;100.00;102111.81;5074007;28;20049;-56
2022/02/23 00:59:14;;;;;;;11.32;2.38;;;;;;;3.80;100.00;102117.97;5074235;28;20556;-56
2022/02/23 01:01:43;;;;;;;12.45;2.75;;;;;;;3.82;100.00;102120.56;5065064;28;20041;-54
2022/02/23 01:04:11;;;;;;;13.70;2.22;;;;;;;3.77;100.00;102122.38;5063185;28;20128;-55
2022/02/23 01:06:39;;;;;;;15.18;2.33;;;;;;;3.73;100.00;102125.00;5071609;28;20045;-55
2022/02/23 01:09:07;;;;;;;15.60;2.33;;;;;;;3.71;100.00;102131.16;5066509;28;20041;-56
2022/02/23 01:11:37;;;;;;;16.00;2.47;;;;;;;3.69;100.00;102144.16;5071537;28;20384;-53
2022/02/23 01:14:05;;;;;;;20.05;2.50;;;;;;;3.70;100.00;102145.88;5066639;28;20063;-55
2022/02/23 01:16:34;;;;;;;13.02;2.60;;;;;;;3.66;100.00;102144.22;5062803;28;20053;-55
2022/02/23 01:19:03;;;;;;;19.35;3.55;;;;;;;3.68;100.00;102150.28;5070411;28;20060;-54
2022/02/23 01:21:31;;;;;;;16.75;2.38;;;;;;;3.64;100.00;102147.72;5068130;28;20068;-54
2022/02/23 01:23:59;;;;;;;24.10;2.83;;;;;;;3.60;100.00;102146.94;5063330;28;20057;-54
2022/02/23 01:26:28;;;;;;;12.48;1.95;;;;;;;3.53;100.00;102158.28;5065979;28;20040;-56
2022/02/23 01:28:56;;;;;;;10.55;1.98;;;;;;;3.51;100.00;102150.50;5066719;28;20049;-55
2022/02/23 01:31:24;;;;;;;14.30;2.17;;;;;;;3.59;100.00;102157.38;5066611;28;20040;-55
2022/02/23 01:33:54;;;;;;;13.80;2.65;;;;;;;3.54;100.00;102155.69;5060137;28;20068;-55
2022/02/23 01:36:22;;;;;;;16.83;3.72;;;;;;;3.53;100.00;102159.16;5070089;28;20411;-53
2022/02/23 01:38:50;;;;;;;9.73;2.25;;;;;;;3.55;100.00;102160.00;5062601;28;20041;-54
2022/02/23 01:41:19;;;;;;;12.63;2.50;;;;;;;3.59;100.00;102157.38;5070978;28;21036;-54
2022/02/23 01:43:48;;;;;;;17.08;2.63;;;;;;;3.54;100.00;102157.41;5069945;28;20040;-54
2022/02/23 01:46:17;;;;;;;16.83;3.60;;;;;;;3.52;100.00;102156.59;5067254;28;20511;-55
2022/02/23 01:48:45;;;;;;;13.05;2.15;;;;;;;3.49;100.00;102169.63;5068045;28;20506;-56
2022/02/23 01:51:15;;;;;;;11.45;1.92;;;;;;;3.47;100.00;102164.44;5070615;28;20040;-56
2022/02/23 01:53:43;;;;;;;12.43;2.15;;;;;;;3.46;100.00;102162.72;5052839;28;20049;-54
2022/02/23 01:56:11;;;;;;;12.68;2.22;;;;;;;3.44;100.00;102171.44;5061768;28;20459;-55
2022/02/23 01:58:39;;;;;;;13.40;3.30;;;;;;;3.43;100.00;102165.38;5070388;28;20094;-55
2022/02/23 02:01:10;;;;;;;19.50;3.15;;;;;;;3.36;100.00;102172.41;5068911;28;20056;-55
2022/02/23 02:03:39;;;;;;;19.00;2.33;;;;;;;3.32;100.00;102183.72;5065503;28;20378;-52
2022/02/23 02:06:07;;;;;;;10.68;2.25;;;;;;;3.30;100.00;102189.81;5070327;28;20052;-55
2022/02/23 02:08:37;;;;;;;16.88;2.90;;;;;;;3.29;100.00;102191.56;5063865;28;20058;-55
2022/02/23 02:11:05;;;;;;;17.77;2.22;;;;;;;3.27;100.00;102200.28;5061815;28;20041;-56
2022/02/23 02:13:33;;;;;;;19.80;2.30;;;;;;;3.24;100.00;102200.31;5070543;28;20110;-55
2022/02/23 02:16:01;;;;;;;12.80;2.25;;;;;;;3.26;100.00;102202.03;5063413;28;20438;-55
2022/02/23 02:18:29;;;;;;;11.55;2.22;;;;;;;3.24;100.00;102201.16;5063712;28;20541;-55
2022/02/23 02:20:57;;;;;;;18.50;2.50;;;;;;;3.27;100.00;102205.47;5063160;28;20066;-54
2022/02/23 02:23:27;;;;;;;14.30;2.47;;;;;;;3.24;100.00;102208.13;5069444;28;20036;-49
2022/02/23 02:25:55;;;;;;;21.83;3.13;;;;;;;3.21;100.00;102217.66;5071234;28;20151;-46
2022/02/23 02:28:23;;;;;;;16.98;2.42;;;;;;;3.19;100.00;102218.56;5067879;28;20047;-46
2022/02/23 02:30:51;;;;;;;11.95;2.15;;;;;;;3.23;100.00;102209.84;5069765;28;20234;-46
2022/02/23 02:33:21;;;;;;;16.17;2.03;;;;;;;3.21;100.00;102214.22;5070509;28;20041;-46
2022/02/23 02:35:49;;;;;;;15.25;1.77;;;;;;;3.17;100.00;102215.97;5068680;28;20041;-45
2022/02/23 02:38:19;;;;;;;12.50;2.47;;;;;;;3.13;100.00;102223.84;5069356;28;20467;-48
2022/02/23 02:40:49;;;;;;;10.63;2.00;;;;;;;3.10;100.00;102226.50;5056170;28;20558;-47
2022/02/23 02:43:17;;;;;;;12.13;1.80;;;;;;;3.10;100.00;102229.09;5070573;28;20056;-49
2022/02/23 02:45:45;;;;;;;18.23;2.00;;;;;;;3.07;100.00;102227.38;5060844;28;20060;-46
2022/02/23 02:48:13;;;;;;;20.98;2.92;;;;;;;3.06;100.00;102233.47;5064260;28;20045;-46
2022/02/23 02:50:41;;;;;;;16.17;2.40;;;;;;;3.02;100.00;102229.16;5068973;28;20036;-46
2022/02/23 02:53:09;;;;;;;14.63;2.42;;;;;;;3.05;100.00;102234.31;5063636;28;20483;-47
2022/02/23 02:55:37;;;;;;;14.27;2.80;;;;;;;3.00;100.00;102233.50;5068244;28;20052;-45
2022/02/23 02:58:08;;;;;;;13.07;1.88;;;;;;;3.02;100.00;102229.16;5054633;28;20024;-44
2022/02/23 03:00:36;;;;;;;16.48;3.03;;;;;;;3.00;100.00;102236.09;5063335;28;20049;-45
2022/02/23 03:03:04;;;;;;;15.07;2.72;;;;;;;3.01;100.00;102245.63;5067021;28;20044;-45
2022/02/23 03:05:32;;;;;;;14.75;2.50;;;;;;;3.04;100.00;102240.41;5072386;28;20499;-46
2022/02/23 03:08:00;;;;;;;15.18;2.35;;;;;;;2.96;100.00;102239.63;5071904;28;20352;-45
2022/02/23 03:10:28;;;;;;;14.77;2.25;;;;;;;2.95;100.00;102243.13;5072350;28;20072;-45
2022/02/23 03:12:57;;;;;;;11.38;2.10;;;;;;;2.99;100.00;102250.84;5072312;28;20507;-44
2022/02/23 03:15:28;;;;;;;14.63;2.08;;;;;;;2.99;100.00;102255.22;5072361;28;20063;-47
2022/02/23 03:17:56;;;;;;;16.92;1.98;;;;;;;2.93;100.00;102250.06;5071829;28;20047;-48
2022/02/23 03:20:24;;;;;;;8.95;2.00;;;;;;;2.93;100.00;102257.84;5072003;28;20123;-48
2022/02/23 03:22:52;;;;;;;11.90;2.10;;;;;;;2.92;100.00;102261.31;5071563;28;20083;-45
2022/02/23 03:25:20;;;;;;;11.88;3.22;;;;;;;2.89;100.00;102267.44;5071965;28;20519;-48
2022/02/23 03:27:48;;;;;;;15.88;2.67;;;;;;;2.91;100.00;102264.81;5071743;28;20072;-46
2022/02/23 03:30:16;;;;;;;15.23;2.13;;;;;;;2.88;100.00;102266.56;5072226;28;20048;-47
2022/02/23 03:32:46;;;;;;;17.23;2.13;;;;;;;2.90;100.00;102265.69;5071979;28;20509;-45
2022/02/23 03:35:14;;;;;;;12.57;2.30;;;;;;;2.88;100.00;102269.16;5071812;28;20045;-49
2022/02/23 03:37:42;;;;;;;9.75;2.00;;;;;;;2.87;100.00;102277.81;5071561;28;20102;-45
2022/02/23 03:40:11;;;;;;;9.80;1.90;;;;;;;2.82;100.00;102284.84;5071900;28;20399;-46
2022/02/23 03:42:40;;;;;;;14.57;2.30;;;;;;;2.81;100.00;102288.28;5071867;28;20052;-54
2022/02/23 03:45:08;;;;;;;16.27;2.40;;;;;;;2.82;100.00;102291.75;5071078;28;20147;-43
2022/02/23 03:47:38;;;;;;;13.35;2.53;;;;;;;2.80;100.00;102294.38;5071695;28;20060;-55
2022/02/23 03:50:08;;;;;;;16.75;2.45;;;;;;;2.77;100.00;102294.41;5069904;28;20071;-46
2022/02/23 03:52:36;;;;;;;11.82;2.25;;;;;;;2.76;100.00;102297.00;5071354;28;20059;-55
2022/02/23 03:55:05;;;;;;;10.88;2.58;;;;;;;2.72;100.00;102298.78;5071640;28;20391;-49
2022/02/23 03:57:34;;;;;;;16.52;2.70;;;;;;;2.73;100.00;102307.41;5073366;28;20049;-55
2022/02/23 04:00:03;;;;;;;14.80;2.42;;;;;;;2.70;100.00;102316.97;5075072;28;20070;-46
2022/02/23 04:02:31;;;;;;;11.52;2.20;;;;;;;2.65;100.00;102317.91;5074921;28;20495;-48
2022/02/23 04:04:59;;;;;;;10.38;2.15;;;;;;;2.65;100.00;102310.94;5074677;28;20040;-47
2022/02/23 04:07:28;;;;;;;15.10;2.22;;;;;;;2.63;100.00;102319.63;5073518;28;20083;-56
2022/02/23 04:09:57;;;;;;;16.33;2.75;;;;;;;2.59;100.00;102317.94;5074539;28;20044;-47
2022/02/23 04:12:25;;;;;;;11.50;2.15;;;;;;;2.58;100.00;102324.88;5074654;28;20487;-55
2022/02/23 04:14:56;;;;;;;16.02;3.13;;;;;;;2.56;100.00;102325.75;5074605;28;20044;-56
2022/02/23 04:17:26;;;;;;;13.90;2.17;;;;;;;2.53;100.00;102331.84;5074602;28;20051;-55
2022/02/23 04:19:54;;;;;;;18.33;2.80;;;;;;;2.51;100.00;102331.84;5074623;28;20067;-55
2022/02/23 04:22:22;;;;;;;24.73;3.05;;;;;;;2.47;100.00;102335.34;5074369;28;20045;-49
2022/02/23 04:24:51;;;;;;;11.27;2.00;;;;;;;2.46;100.00;102348.34;5074592;28;20072;-46
2022/02/23 04:27:20;;;;;;;17.40;2.50;;;;;;;2.43;100.00;102338.00;5074760;28;20399;-47
2022/02/23 04:29:49;;;;;;;14.30;2.78;;;;;;;2.42;100.00;102339.69;5074146;28;20109;-46
2022/02/23 04:32:17;;;;;;;9.02;2.30;;;;;;;2.40;100.00;102343.19;5074262;28;20114;-46
2022/02/23 04:34:46;;;;;;;15.40;2.72;;;;;;;2.36;100.00;102338.00;5074384;28;20044;-46
2022/02/23 04:37:15;;;;;;;14.65;2.60;;;;;;;2.33;100.00;102339.75;5074446;28;20041;-43
2022/02/23 04:39:43;;;;;;;13.57;2.60;;;;;;;2.29;100.00;102346.72;5074829;28;20497;-47
2022/02/23 04:42:12;;;;;;;13.13;2.60;;;;;;;2.26;100.00;102354.50;5074659;28;20049;-54
2022/02/23 04:44:40;;;;;;;15.20;3.03;;;;;;;2.20;100.00;102352.81;5074487;28;20121;-54
2022/02/23 04:47:08;;;;;;;14.45;2.90;;;;;;;2.21;100.00;102356.31;5074487;28;20063;-53
2022/02/23 04:49:36;;;;;;;16.55;2.70;;;;;;;2.20;100.00;102355.41;5074596;28;20518;-55
2022/02/23 04:52:06;;;;;;;10.65;2.88;;;;;;;2.16;100.00;102358.06;5074366;28;20049;-54
2022/02/23 04:54:34;;;;;;;19.90;3.30;;;;;;;2.12;100.00;102364.13;5073412;28;20112;-55
2022/02/23 04:57:03;;;;;;;14.60;3.65;;;;;;;2.15;100.00;102364.09;5074239;28;20079;-53
2022/02/23 04:59:33;;;;;;;12.82;3.05;;;;;;;2.12;100.00;102359.78;5074201;28;20044;-54
2022/02/23 05:02:01;;;;;;;20.33;3.35;;;;;;;2.16;100.00;102371.03;5074153;28;20499;-55
2022/02/23 05:04:29;;;;;;;10.27;2.83;;;;;;;2.15;100.00;102375.34;5074130;28;20041;-54
2022/02/23 05:06:59;;;;;;;15.70;3.00;;;;;;;2.16;100.00;102369.28;5073781;28;20376;-46
2022/02/23 05:09:27;;;;;;;16.35;4.40;;;;;;;2.14;100.00;102368.44;5073818;28;20044;-46
2022/02/23 05:11:55;;;;;;;12.38;3.13;;;;;;;2.15;100.00;102370.16;5074078;28;20040;-47
2022/02/23 05:14:23;;;;;;;12.50;3.20;;;;;;;2.13;100.00;102376.25;5073801;28;20078;-46
2022/02/23 05:16:53;;;;;;;10.73;2.83;;;;;;;2.10;100.00;102373.66;5073720;28;20052;-46
2022/02/23 05:19:21;;;;;;;16.88;2.92;;;;;;;2.08;100.00;102373.66;5073678;28;20044;-43
2022/02/23 05:21:49;;;;;;;13.60;3.00;;;;;;;2.08;100.00;102375.41;5073686;28;20122;-46
2022/02/23 05:24:17;;;;;;;18.33;4.75;;;;;;;2.06;100.00;102370.22;5072420;28;20048;-46
2022/02/23 05:26:45;;;;;;;17.55;3.05;;;;;;;2.03;100.00;102380.59;5073763;28;20124;-48
2022/02/23 05:29:13;;;;;;;17.90;3.63;;;;;;;2.02;100.00;102391.88;5073677;28;20447;-44
2022/02/23 05:31:41;;;;;;;12.55;3.42;;;;;;;2.05;100.00;102388.41;5073612;28;20075;-47
2022/02/23 05:34:10;;;;;;;11.98;3.10;;;;;;;2.01;100.00;102384.94;5073549;28;20044;-43
2022/02/23 05:36:38;;;;;;;14.07;3.72;;;;;;;2.00;100.00;102385.81;5072149;28;20049;-44
2022/02/23 05:39:08;;;;;;;17.00;3.38;;;;;;;1.99;100.00;102394.47;5073399;28;20044;-43
2022/02/23 05:41:36;;;;;;;14.32;3.20;;;;;;;1.97;100.00;102391.88;5073406;28;20047;-44
2022/02/23 05:44:05;;;;;;;18.00;3.05;;;;;;;1.91;100.00;102386.72;5072070;28;20048;-55
2022/02/23 05:46:33;;;;;;;15.95;4.10;;;;;;;1.90;100.00;102399.72;5072768;28;20044;-53
2022/02/23 05:49:02;;;;;;;11.77;3.53;;;;;;;1.91;100.00;102402.31;5072520;28;20060;-54
2022/02/23 05:51:33;;;;;;;13.70;3.35;;;;;;;1.91;100.00;102401.41;5072862;28;20494;-52
2022/02/23 05:54:02;;;;;;;12.98;3.05;;;;;;;1.88;100.00;102398.84;5072546;28;20048;-55
2022/02/23 05:56:30;;;;;;;11.60;3.50;;;;;;;1.88;100.00;102412.66;5072875;28;20052;-54
2022/02/23 05:58:59;;;;;;;20.65;3.75;;;;;;;1.89;100.00;102409.22;5071733;28;20055;-52
2022/02/23 06:01:27;;;;;;;13.95;3.55;;;;;;;1.89;100.00;102419.59;5073077;28;20448;-55
2022/02/23 06:03:56;;;;;;;10.35;3.20;;;;;;;1.90;100.00;102421.31;5072695;28;20051;-55
2022/02/23 06:06:24;;;;;;;12.38;2.90;;;;;;;1.86;100.00;102425.66;5072686;28;20570;-55
2022/02/23 06:08:53;;;;;;;10.48;3.60;;;;;;;1.86;100.00;102424.81;5072739;28;20056;-56
2022/02/23 06:11:25;;;;;;;16.50;4.03;;;;;;;1.84;100.00;102434.31;5072743;28;20089;-55
2022/02/23 06:13:53;;;;;;;16.38;3.28;;;;;;;1.84;100.00;102429.13;5072429;28;20127;-56
2022/02/23 06:16:23;;;;;;;16.83;3.72;;;;;;;1.83;100.00;102432.59;5072451;28;20048;-54
2022/02/23 06:18:52;;;;;;;13.18;3.08;;;;;;;1.83;100.00;102436.06;5072129;28;20044;-53
2022/02/23 06:21:20;;;;;;;12.60;3.55;;;;;;;1.82;100.00;102442.09;5072697;28;20094;-54
2022/02/23 06:23:48;;;;;;;13.80;3.10;;;;;;;1.82;100.00;102449.03;5072818;28;20514;-55
2022/02/23 06:26:17;;;;;;;11.73;2.90;;;;;;;1.82;100.00;102438.66;5072730;28;20098;-54
2022/02/23 06:28:45;;;;;;;15.02;3.17;;;;;;;1.80;100.00;102445.56;5072795;28;20051;-56
2022/02/23 06:31:14;;;;;;;17.95;4.57;;;;;;;1.80;100.00;102445.56;5072427;28;20036;-54
2022/02/23 06:33:43;;;;;;;13.77;4.38;;;;;;;1.79;100.00;102449.91;5072525;28;20059;-54
2022/02/23 06:36:12;;;;;;;16.13;3.58;;;;;;;1.76;100.00;102446.44;5072550;28;20192;-56
2022/02/23 06:38:41;;;;;;;20.15;3.83;;;;;;;1.72;100.00;102455.97;5072463;28;20487;-55
2022/02/23 06:41:12;;;;;;;19.13;4.05;;;;;;;1.70;100.00;102447.31;5072270;28;20094;-55
2022/02/23 06:43:43;;;;;;;13.70;3.22;;;;;;;1.66;100.00;102448.19;5072359;28;20082;-52
2022/02/23 06:46:12;;;;;;;19.73;3.13;;;;;;;1.68;100.00;102457.72;5072394;28;20067;-54
2022/02/23 06:48:47;;;;;;;11.23;2.80;;;;;;;1.66;100.00;102458.56;5072082;28;20084;-54
2022/02/23 06:51:18;;;;;;;11.48;3.00;;;;;;;1.64;100.00;102452.53;5072240;28;20048;-53
2022/02/23 06:53:48;;;;;;;11.80;3.05;;;;;;;1.62;100.00;102449.06;5072105;28;20048;-55
2022/02/23 06:56:17;;;;;;;16.13;3.38;;;;;;;1.62;100.00;102451.66;5072281;28;20059;-56
2022/02/23 06:58:49;;;;;;;10.65;3.08;;;;;;;1.58;100.00;102456.03;5072325;28;20487;-54
2022/02/23 07:01:19;;;;;;;17.27;2.88;;;;;;;1.60;100.00;102448.22;5072391;28;20045;-55
2022/02/23 07:03:49;;;;;;;16.65;3.63;;;;;;;1.61;100.00;102453.41;5070664;28;20059;-56
2022/02/23 07:06:17;;;;;;;12.48;3.28;;;;;;;1.67;100.00;102447.34;5072234;28;20426;-56
2022/02/23 07:08:48;;;;;;;11.00;3.10;;;;;;;1.67;100.00;102439.56;5072255;28;20068;-56
2022/02/23 07:11:17;;;;;;;14.63;3.25;;;;;;;1.68;100.00;102446.47;5072188;28;20044;-56
2022/02/23 07:13:47;;;;;;;14.43;2.83;;;;;;;1.73;100.00;102454.25;5071861;28;20056;-49
2022/02/23 07:16:15;;;;;;;18.67;3.50;;;;;;;1.74;100.00;102448.19;5071701;28;20044;-45
2022/02/23 07:18:44;;;;;;;11.10;3.17;;;;;;;1.73;100.00;102449.91;5071716;28;20049;-46
2022/02/23 07:21:12;;;;;;;20.55;3.85;;;;;;;1.76;100.00;102449.03;5071629;28;20102;-46
2022/02/23 07:23:41;;;;;;;16.00;3.30;;;;;;;1.76;100.00;102455.09;5071961;28;20044;-49
2022/02/23 07:26:09;;;;;;;12.00;3.10;;;;;;;1.78;100.00;102461.13;5071978;28;20056;-44
2022/02/23 07:28:38;;;;;;;18.08;3.53;;;;;;;1.80;100.00;102462.00;5071884;28;20052;-44
2022/02/23 07:31:11;;;;;;;16.23;3.42;;;;;;;2.02;100.00;102464.53;5073534;28;20041;-46
2022/02/23 07:33:40;;;;;;;14.15;4.60;;;;;;;2.06;100.00;102466.25;5075468;28;20052;-48
2022/02/23 07:36:09;;;;;;;16.83;3.15;;;;;;;2.43;100.00;102463.50;5075542;28;20048;-46
2022/02/23 07:38:38;;;;;;;14.27;3.80;;;;;;;2.74;100.00;102465.94;5075691;28;20079;-56
2022/02/23 07:41:07;;;;;;;18.08;3.40;;;;;;;3.02;100.00;102473.53;5075434;28;20097;-55
2022/02/23 07:43:55;;;;;;;15.15;3.35;;;;;;;3.24;100.00;102473.34;5075229;28;20045;-57
2022/02/23 07:46:25;;;;;;;14.93;4.18;;;;;;;3.50;100.00;102466.16;5075588;28;20165;-56
2022/02/23 07:48:58;;;;;;;21.58;4.18;;;;;;;3.67;100.00;102476.41;5075459;28;20057;-56
2022/02/23 07:51:26;;;;;;;15.75;3.65;;;;;;;3.84;100.00;102471.00;5075554;28;20549;-54
2022/02/23 07:53:55;;;;;;;15.50;3.83;;;;;;;4.15;100.00;102481.09;5075350;28;20439;-56
2022/02/23 07:56:24;;;;;;;17.33;3.85;;;;;;;4.27;100.00;102482.69;5075270;28;20442;-54
2022/02/23 07:58:52;;;;;;;12.23;3.13;;;;;;;4.37;100.00;102484.28;5075370;28;20044;-55
2022/02/23 08:01:40;;;;;;;12.50;3.05;;;;;;;4.70;100.00;102489.06;5075249;28;20101;-55
2022/02/23 08:04:10;;;;;;;13.32;2.95;;;;;;;4.94;100.00;102487.00;5075175;28;20052;-54
2022/02/23 08:06:40;;;;;;;16.38;3.30;;;;;;;5.12;100.00;102494.50;5075124;28;20048;-55
2022/02/23 08:09:09;;;;;;;15.13;3.92;;;;;;;5.20;100.00;102497.00;5074989;28;20045;-54
2022/02/23 08:11:39;;;;;;;15.52;4.60;;;;;;;5.47;100.00;102490.47;5074833;28;20407;-55
2022/02/23 08:14:08;;;;;;;18.50;4.22;;;;;;;5.55;100.00;102495.56;5074800;28;20059;-54
2022/02/23 08:19:34;;;;;;;17.15;3.92;;;;;;;6.11;100.00;102490.19;5074893;28;20527;-54
2022/02/23 08:22:05;;;;;;;13.75;4.00;;;;;;;6.45;100.00;102484.25;5075220;28;20075;-54
2022/02/23 08:24:36;;;;;;;18.00;3.55;;;;;;;6.56;100.00;102487.47;5074803;28;20521;-53
2022/02/23 08:27:07;;;;;;;18.15;2.95;;;;;;;6.65;100.00;102496.88;5074910;28;20479;-54
2022/02/23 08:29:36;;;;;;;14.70;3.22;;;;;;;6.59;100.00;102497.88;5074803;28;20071;-55
2022/02/23 08:32:08;;;;;;;14.20;3.20;;;;;;;6.99;100.00;102500.47;5074538;28;20037;-52
2022/02/23 08:34:39;;;;;;;13.50;3.17;;;;;;;7.26;100.00;102499.78;5074507;28;20045;-46
2022/02/23 08:37:07;;;;;;;15.32;3.53;;;;;;;7.21;100.00;102501.69;5074591;28;20674;-44
2022/02/23 08:39:36;;;;;;;12.98;2.38;;;;;;;7.56;100.00;102502.53;5074335;28;20098;-56
2022/02/23 08:42:06;;;;;;;17.67;3.55;;;;;;;7.40;100.00;102504.72;5073683;28;20071;-44
2022/02/23 08:44:34;;;;;;;9.57;2.60;;;;;;;7.81;100.00;102501.88;5074757;28;20138;-44
2022/02/23 08:47:04;;;;;;;13.10;2.90;;;;;;;8.02;100.00;102503.06;5074276;28;20064;-46
2022/02/23 08:49:32;;;;;;;10.98;2.50;;;;;;;7.89;100.00;102502.53;5074348;28;20045;-56
2022/02/23 08:52:02;;;;;;;15.43;3.38;;;;;;;8.00;100.00;102491.75;5074326;28;20036;-56
2022/02/23 08:54:31;;;;;;;14.70;2.97;;;;;;;8.12;100.00;102487.94;5074306;28;20047;-55
2022/02/23 08:56:59;;;;;;;13.43;3.13;;;;;;;7.94;97.96;102490.16;5073564;28;20160;-54
2022/02/23 08:59:27;;;;;;;11.73;3.20;;;;;;;7.97;98.34;102491.00;5073615;28;20044;-55
2022/02/23 09:01:55;;;;;;;10.52;2.83;;;;;;;8.06;98.53;102485.50;5073750;28;20045;-54
2022/02/23 09:04:23;;;;;;;14.73;3.35;;;;;;;8.14;98.06;102494.00;5073718;28;20483;-55
2022/02/23 09:06:52;;;;;;;12.30;2.83;;;;;;;8.07;97.40;102488.09;5073977;28;20168;-53
2022/02/23 09:09:22;;;;;;;13.07;3.28;;;;;;;8.21;97.49;102481.59;5073961;28;20414;-55
2022/02/23 09:11:50;;;;;;;12.75;2.78;;;;;;;8.17;96.29;102493.91;5073809;28;20036;-55
2022/02/23 09:14:18;;;;;;;16.45;3.53;;;;;;;8.24;96.08;102492.81;5073632;28;20044;-54
2022/02/23 09:16:46;;;;;;;15.05;2.92;;;;;;;8.47;97.54;102496.56;5073850;28;20045;-56
2022/02/23 09:19:15;;;;;;;14.40;3.15;;;;;;;8.57;95.07;102500.63;5073593;28;20155;-54
2022/02/23 09:21:43;;;;;;;8.88;2.88;;;;;;;8.80;95.89;102499.06;5073827;28;20044;-55
2022/02/23 09:24:11;;;;;;;17.58;3.90;;;;;;;8.85;94.91;102502.41;5073560;28;20040;-55
2022/02/23 09:26:40;;;;;;;15.38;3.00;;;;;;;9.03;93.10;102494.84;5073583;28;20040;-56
2022/02/23 09:29:09;;;;;;;12.52;3.58;;;;;;;8.93;90.90;102492.53;5073599;28;20054;-56
2022/02/23 09:31:38;;;;;;;11.75;2.97;;;;;;;8.92;92.39;102489.94;5073531;28;20446;-54
2022/02/23 09:34:07;;;;;;;12.50;3.58;;;;;;;8.98;92.06;102483.66;5073422;28;20052;-52
2022/02/23 09:36:38;;;;;;;11.77;3.53;;;;;;;9.27;91.19;102483.53;5073287;28;20044;-56
2022/02/23 09:39:09;;;;;;;12.63;3.53;;;;;;;9.40;88.99;102478.72;5073507;28;20398;-56
2022/02/23 09:41:38;;;;;;;12.38;3.08;;;;;;;9.50;89.56;102486.28;5073350;28;20426;-55
2022/02/23 09:44:10;;;;;;;9.40;3.13;;;;;;;9.73;88.52;102480.22;5073353;28;20462;-54
2022/02/23 09:46:39;;;;;;;12.45;3.10;;;;;;;9.70;87.94;102481.19;5073214;28;20056;-56
2022/02/23 09:49:11;;;;;;;14.00;3.35;;;;;;;9.97;87.76;102478.50;5073052;28;20051;-55
2022/02/23 09:51:39;;;;;;;10.88;3.40;;;;;;;10.24;85.49;102475.75;5073171;28;20056;-56
2022/02/23 09:54:10;;;;;;;10.13;3.38;;;;;;;10.44;83.50;102478.53;5072247;28;20511;-57
2022/02/23 09:56:39;;;;;;;11.73;3.65;;;;;;;10.32;83.13;102477.19;5073018;28;20499;-56
2022/02/23 09:59:08;;;;;;;14.13;3.95;;;;;;;10.15;83.63;102480.44;5070017;28;20052;-55
2022/02/23 10:01:40;;;;;;;10.85;4.20;;;;;;;10.28;82.64;102479.97;5067810;28;20049;-55
2022/02/23 10:04:08;;;;;;;15.50;4.13;;;;;;;10.69;82.23;102484.59;5072972;28;20052;-56
2022/02/23 10:06:39;;;;;;;12.90;3.58;;;;;;;10.99;82.09;102479.88;5072890;28;20032;-56
2022/02/23 10:09:25;;;;;;;12.10;4.18;;;;;;;11.14;79.96;102483.66;5072947;28;20041;-56
2022/02/23 10:11:57;;;;;;;10.55;4.10;;;;;;;11.35;79.16;102479.25;5072764;28;20052;-56
2022/02/23 10:14:30;;;;;;;13.63;4.00;;;;;;;11.38;78.52;102478.28;5073176;28;20059;-55
2022/02/23 10:17:00;;;;;;;12.18;3.80;;;;;;;11.35;78.16;102478.41;5072530;28;20040;-55
2022/02/23 10:19:30;;;;;;;12.85;4.50;;;;;;;11.60;77.62;102486.09;5073061;28;20053;-57
2022/02/23 10:22:00;;;;;;;14.77;4.13;;;;;;;11.62;76.32;102492.19;5072605;28;20143;-56
2022/02/23 10:24:35;;;;;;;14.70;3.95;;;;;;;11.87;75.98;102486.66;5072543;28;20487;-44
2022/02/23 10:27:07;;;;;;;14.32;4.35;;;;;;;12.00;75.30;102487.88;5072451;28;20084;-56
2022/02/23 10:29:49;;;;;;;12.60;4.18;;;;;;;12.25;75.24;102484.09;5070574;28;20113;-55
2022/02/23 10:32:19;;;;;;;13.73;3.95;;;;;;;12.20;73.28;102487.88;5066908;28;20059;-56
2022/02/23 10:34:52;;;;;;;16.63;4.60;;;;;;;12.12;72.62;102480.31;5071047;28;20040;-57
2022/02/23 10:37:24;;;;;;;15.88;4.15;;;;;;;11.98;73.50;102488.84;5072167;28;20058;-56
2022/02/23 10:39:54;;;;;;;11.95;4.43;;;;;;;12.76;73.16;102483.50;5072284;28;20052;-56
2022/02/23 10:42:29;;;;;;;10.88;3.58;;;;;;;12.40;70.36;102477.25;5072507;28;20147;-57
2022/02/23 10:45:03;;;;;;;13.65;3.67;;;;;;;12.97;70.33;102487.72;5072235;28;20450;-56
2022/02/23 10:47:43;;;;;;;15.27;4.32;;;;;;;12.76;69.49;102481.72;5072315;28;20080;-56
2022/02/23 10:50:13;;;;;;;14.25;4.18;;;;;;;12.85;67.35;102483.91;5072384;28;20144;-57
2022/02/23 10:52:53;;;;;;;14.10;3.80;;;;;;;12.84;67.70;102478.69;5072365;28;20520;-56
2022/02/23 10:55:23;;;;;;;14.40;3.42;;;;;;;13.59;66.68;102476.72;5069468;28;20045;-57
2022/02/23 10:57:56;;;;;;;;;;;;;;;14.10;66.61;102475.84;5068497;28;20052;-56
2022/02/23 11:00:36;;;;;;;9.60;3.17;;;;;;;13.82;63.30;102470.22;5072064;28;19920;-57
2022/02/23 11:03:07;;;;;;;15.18;3.83;;;;;;;14.06;63.60;102471.63;5071996;28;20106;-56
2022/02/23 11:05:36;;;;;;;14.77;3.30;;;;;;;14.29;62.42;102473.03;5072980;28;20049;-56
2022/02/23 11:08:11;;;;;;;10.57;2.85;;;;;;;14.30;62.26;102465.03;5076154;28;20379;-56
2022/02/23 11:10:44;;;;;;;10.30;2.55;;;;;;;14.78;60.25;102459.72;5076034;28;20046;-56
2022/02/23 11:13:17;;;;;;;10.82;3.03;;;;;;;14.19;58.20;102456.81;5072380;28;20051;-57
2022/02/23 11:16:00;;;;;;;11.07;3.22;;;;;;;14.50;59.50;102442.72;5074280;28;20048;-56
2022/02/23 11:18:32;;;;;;;12.98;3.00;;;;;;;14.96;57.36;102449.84;5076088;28;20055;-57
2022/02/23 11:21:03;;;;;;;10.40;2.63;;;;;;;15.52;55.99;102441.25;5076395;28;20071;-55
2022/02/23 11:23:41;;;;;;;10.68;3.25;;;;;;;15.36;55.54;102434.22;5074737;28;20511;-55
2022/02/23 11:26:15;;;;;;;12.65;3.03;;;;;;;15.09;54.20;102428.78;5075947;28;20056;-56
2022/02/23 11:28:49;;;;;;;12.25;3.13;;;;;;;14.75;53.65;102427.25;5073113;28;20052;-57
2022/02/23 11:31:18;;;;;;;11.52;2.47;;;;;;;14.74;53.01;102426.41;5071598;28;20052;-56
2022/02/23 11:33:54;;;;;;;9.57;2.40;;;;;;;14.77;53.75;102423.59;5075689;28;20379;-57